Jupiter Spirit — A8ZC2 — position and weather

sailwx.info

Track history (hours):
 
Tides and Currents Weather Stations Pressure Air Temp Water Temp Dewpoint Dewpoint Depression Visibility Wind Speed Wind Dir Waves Ship Positions

Jupiter Spirit

Last reported at 2017-Nov-17 09:18 UTC. Time now 2017-Nov-24 20:48 UTC.
Position N 34°47' E 139°35'.

Length 183 m; draft 8.5 m.

Type: Cargo ship. MMSI: 636015173.

Date/timePositionNaut miles runAvg speedWind from/ knotsBaromVisibWave heightAir tempDewpointWater temp
2017-Nov-17 09:18N 34°47' E 139°35'413.7
2017-Nov-17 08:58N 34°51' E 139°37'613.8
2017-Nov-17 08:30N 34°57' E 139°39'612.9
2017-Nov-17 08:00N 35°03' E 139°42'713.1
2017-Nov-17 07:30N 35°10' E 139°45'612.1
2017-Nov-17 07:01N 35°16' E 139°46'612.2
2017-Nov-17 06:30N 35°21' E 139°42'612.5
2017-Nov-17 06:00N 35°27' E 139°43'2 3.1
2017-Nov-17 05:30N 35°28' E 139°42'0 0.0
2017-Nov-17 04:57N 35°28' E 139°42'0 0.0
2017-Nov-17 04:30N 35°28' E 139°42'0 0.0
2017-Nov-17 04:00N 35°28' E 139°42'0 0.0
2017-Nov-17 03:27N 35°28' E 139°42'0 0.0
2017-Nov-17 03:00N 35°28' E 139°42'0 0.0
2017-Nov-17 02:30N 35°28' E 139°42'0 0.0
2017-Nov-17 02:00N 35°28' E 139°42'0 0.0
2017-Nov-17 01:30N 35°28' E 139°42'0 0.0
2017-Nov-17 01:00N 35°28' E 139°42'0 0.0
2017-Nov-17 00:30N 35°28' E 139°42'0 0.0
2017-Nov-17 00:00N 35°28' E 139°42'0 0.0
2017-Nov-16 23:30N 35°28' E 139°42'0 0.0
2017-Nov-16 23:00N 35°28' E 139°42'0 0.0
2017-Nov-16 22:30N 35°28' E 139°42'0 0.0
2017-Nov-16 22:00N 35°28' E 139°42'0 0.0
2017-Nov-16 21:30N 35°28' E 139°42'0 0.0
2017-Nov-16 21:00N 35°28' E 139°42'0 0.0
2017-Nov-16 20:30N 35°28' E 139°42'0 0.0
2017-Nov-16 19:57N 35°28' E 139°42'0 0.0
2017-Nov-16 19:30N 35°28' E 139°42'0 0.0
2017-Nov-16 19:00N 35°28' E 139°42'0 0.0
2017-Nov-16 18:27N 35°28' E 139°42'0 0.0
2017-Nov-16 18:00N 35°28' E 139°42'0 0.0
2017-Nov-16 17:30N 35°28' E 139°42'0 0.0
2017-Nov-16 17:00N 35°28' E 139°42'0 0.0
2017-Nov-16 16:27N 35°28' E 139°42'0 0.0
2017-Nov-16 16:00N 35°28' E 139°42'0 0.0
2017-Nov-16 15:30N 35°28' E 139°42'0 0.0
2017-Nov-16 15:00N 35°28' E 139°42'0 0.0
2017-Nov-16 14:27N 35°28' E 139°42'0 0.0
2017-Nov-16 14:00N 35°28' E 139°42'0 0.0
2017-Nov-16 13:30N 35°28' E 139°42'0 0.0
2017-Nov-16 13:00N 35°28' E 139°42'0 0.0
2017-Nov-16 12:30N 35°28' E 139°42'0 0.0
2017-Nov-16 12:00N 35°28' E 139°42'0 0.0
2017-Nov-16 11:30N 35°28' E 139°42'0 0.0
2017-Nov-16 11:00N 35°28' E 139°42'0 0.0
2017-Nov-16 10:30N 35°28' E 139°42'0 0.0
2017-Nov-16 09:57N 35°28' E 139°42'0 0.0
2017-Nov-16 09:27N 35°28' E 139°42'0 0.0
2017-Nov-16 09:00N 35°28' E 139°42'0 0.1
2017-Nov-16 08:30N 35°28' E 139°42'1 1.9
2017-Nov-16 08:00N 35°27' E 139°43'4 8.8
2017-Nov-16 07:30N 35°24' E 139°46'612.3
2017-Nov-16 07:00N 35°18' E 139°44'612.3
2017-Nov-16 06:30N 35°12' E 139°47'4 7.6
2017-Nov-16 06:00N 35°09' E 139°46'3 6.8
2017-Nov-16 05:30N 35°05' E 139°45'4 8.0
2017-Nov-16 05:00N 35°01' E 139°43'4 7.1
2017-Nov-16 04:30N 34°58' E 139°42'4 7.3
2017-Nov-16 04:00N 34°54' E 139°42'4 7.5
2017-Nov-16 03:26N 34°51' E 139°46'  
Track history (hours):
 
Tides and Currents Weather Stations Pressure Air Temp Water Temp Dewpoint Dewpoint Depression Visibility Wind Speed Wind Dir Waves Ship Positions

Jupiter Spirit

Last reported at 2017-Nov-17 09:18 UTC. Time now 2017-Nov-24 20:48 UTC.
Position N 34°47' E 139°35'.

Length 183 m; draft 8.5 m.

Type: Cargo ship. MMSI: 636015173.

Date/timePositionNaut miles runAvg speedWind from/ knotsBaromVisibWave heightAir tempDewpointWater temp
2017-Nov-17 09:18N 34°47' E 139°35'413.7
2017-Nov-17 08:58N 34°51' E 139°37'613.8
2017-Nov-17 08:30N 34°57' E 139°39'612.9
2017-Nov-17 08:00N 35°03' E 139°42'713.1
2017-Nov-17 07:30N 35°10' E 139°45'612.1
2017-Nov-17 07:01N 35°16' E 139°46'612.2
2017-Nov-17 06:30N 35°21' E 139°42'612.5
2017-Nov-17 06:00N 35°27' E 139°43'2 3.1
2017-Nov-17 05:30N 35°28' E 139°42'0 0.0
2017-Nov-17 04:57N 35°28' E 139°42'0 0.0
2017-Nov-17 04:30N 35°28' E 139°42'0 0.0
2017-Nov-17 04:00N 35°28' E 139°42'0 0.0
2017-Nov-17 03:27N 35°28' E 139°42'0 0.0
2017-Nov-17 03:00N 35°28' E 139°42'0 0.0
2017-Nov-17 02:30N 35°28' E 139°42'0 0.0
2017-Nov-17 02:00N 35°28' E 139°42'0 0.0
2017-Nov-17 01:30N 35°28' E 139°42'0 0.0
2017-Nov-17 01:00N 35°28' E 139°42'0 0.0
2017-Nov-17 00:30N 35°28' E 139°42'0 0.0
2017-Nov-17 00:00N 35°28' E 139°42'0 0.0
2017-Nov-16 23:30N 35°28' E 139°42'0 0.0
2017-Nov-16 23:00N 35°28' E 139°42'0 0.0
2017-Nov-16 22:30N 35°28' E 139°42'0 0.0
2017-Nov-16 22:00N 35°28' E 139°42'0 0.0
2017-Nov-16 21:30N 35°28' E 139°42'0 0.0
2017-Nov-16 21:00N 35°28' E 139°42'0 0.0
2017-Nov-16 20:30N 35°28' E 139°42'0 0.0
2017-Nov-16 19:57N 35°28' E 139°42'0 0.0
2017-Nov-16 19:30N 35°28' E 139°42'0 0.0
2017-Nov-16 19:00N 35°28' E 139°42'0 0.0
2017-Nov-16 18:27N 35°28' E 139°42'0 0.0
2017-Nov-16 18:00N 35°28' E 139°42'0 0.0
2017-Nov-16 17:30N 35°28' E 139°42'0 0.0
2017-Nov-16 17:00N 35°28' E 139°42'0 0.0
2017-Nov-16 16:27N 35°28' E 139°42'0 0.0
2017-Nov-16 16:00N 35°28' E 139°42'0 0.0
2017-Nov-16 15:30N 35°28' E 139°42'0 0.0
2017-Nov-16 15:00N 35°28' E 139°42'0 0.0
2017-Nov-16 14:27N 35°28' E 139°42'0 0.0
2017-Nov-16 14:00N 35°28' E 139°42'0 0.0
2017-Nov-16 13:30N 35°28' E 139°42'0 0.0
2017-Nov-16 13:00N 35°28' E 139°42'0 0.0
2017-Nov-16 12:30N 35°28' E 139°42'0 0.0
2017-Nov-16 12:00N 35°28' E 139°42'0 0.0
2017-Nov-16 11:30N 35°28' E 139°42'0 0.0
2017-Nov-16 11:00N 35°28' E 139°42'0 0.0
2017-Nov-16 10:30N 35°28' E 139°42'0 0.0
2017-Nov-16 09:57N 35°28' E 139°42'0 0.0
2017-Nov-16 09:27N 35°28' E 139°42'0 0.0
2017-Nov-16 09:00N 35°28' E 139°42'0 0.1
2017-Nov-16 08:30N 35°28' E 139°42'1 1.9
2017-Nov-16 08:00N 35°27' E 139°43'4 8.8
2017-Nov-16 07:30N 35°24' E 139°46'612.3
2017-Nov-16 07:00N 35°18' E 139°44'612.3
2017-Nov-16 06:30N 35°12' E 139°47'4 7.6
2017-Nov-16 06:00N 35°09' E 139°46'3 6.8
2017-Nov-16 05:30N 35°05' E 139°45'4 8.0
2017-Nov-16 05:00N 35°01' E 139°43'4 7.1
2017-Nov-16 04:30N 34°58' E 139°42'4 7.3
2017-Nov-16 04:00N 34°54' E 139°42'4 7.5
2017-Nov-16 03:26N 34°51' E 139°46'  

Dump ship's entire track history